Time;durP1;ratioP1;P1;durP2;ratioP2;P2;SDS_P1;SDS_P2;PMS_P1;PMS_P2;Temp;Humidity;BMP_temperature;BMP_pressure;BME280_temperature;BME280_humidity;BME280_pressure;Samples;Min_cycle;Max_cycle;Signal;HPM_P1;HPM_P2
2022/09/08 00:00:07;;;;;;;19.75;10.75;;;;;;;5.90;100.00;100416.34;1695092;84;21540;-66
2022/09/08 00:02:37;;;;;;;22.10;10.40;;;;;;;5.91;100.00;100410.67;1695764;84;21047;-66
2022/09/08 00:05:05;;;;;;;19.55;11.03;;;;;;;5.89;100.00;100410.71;1695400;84;21649;-65
2022/09/08 00:07:32;;;;;;;30.57;11.43;;;;;;;5.88;100.00;100407.66;1695401;84;21027;-66
2022/09/08 00:10:00;;;;;;;25.35;12.15;;;;;;;5.86;100.00;100401.13;1695223;84;21137;-66
2022/09/08 00:12:29;;;;;;;20.15;11.20;;;;;;;5.84;100.00;100405.55;1695200;84;21035;-65
2022/09/08 00:14:58;;;;;;;26.97;12.88;;;;;;;5.81;100.00;100407.32;1695232;84;21067;-66
2022/09/08 00:17:24;;;;;;;20.32;10.03;;;;;;;5.80;100.00;100408.22;1679460;84;21051;-65
2022/09/08 00:19:52;;;;;;;21.27;11.12;;;;;;;5.77;100.00;100406.48;1697124;83;21069;-65
2022/09/08 00:22:18;;;;;;;25.12;11.70;;;;;;;5.77;100.00;100410.85;1697006;84;21225;-65
2022/09/08 00:24:45;;;;;;;26.65;12.30;;;;;;;5.75;100.00;100409.59;1696665;84;21104;-65
2022/09/08 00:27:12;;;;;;;21.45;11.83;;;;;;;5.74;100.00;100404.37;1696766;84;21065;-65
2022/09/08 00:29:38;;;;;;;24.30;12.45;;;;;;;5.73;100.00;100406.54;1696398;84;21068;-66
2022/09/08 00:32:05;;;;;;;27.40;14.25;;;;;;;5.75;100.00;100411.31;1696966;84;21104;-66
2022/09/08 00:34:32;;;;;;;26.12;12.95;;;;;;;5.74;100.00;100406.98;1696686;84;21580;-65
2022/09/08 00:36:58;;;;;;;23.18;11.97;;;;;;;5.77;100.00;100410.85;1687798;84;21053;-67
2022/09/08 00:39:26;;;;;;;18.73;9.60;;;;;;;5.75;100.00;100407.39;1684277;85;21030;-65
2022/09/08 00:41:55;;;;;;;19.55;10.65;;;;;;;5.81;100.00;100407.32;1650769;86;21536;-66
2022/09/08 00:44:50;;;;;;;23.83;11.65;;;;;;;5.87;100.00;100404.64;1684325;84;21066;-67
2022/09/08 00:47:30;;;;;;;29.00;12.98;;;;;;;5.93;100.00;100396.69;1684313;85;22163;-67
2022/09/08 00:50:08;;;;;;;21.90;12.63;;;;;;;5.96;100.00;100398.01;1684135;84;22066;-65
2022/09/08 00:52:45;;;;;;;29.70;14.50;;;;;;;5.98;100.00;100397.97;1683357;84;21054;-67
2022/09/08 00:55:13;;;;;;;24.10;12.88;;;;;;;6.02;100.00;100398.35;1703961;83;21075;-65
2022/09/08 00:57:40;;;;;;;21.27;11.90;;;;;;;6.04;100.00;100393.52;1713361;82;20969;-65
2022/09/08 01:00:11;;;;;;;25.50;12.75;;;;;;;6.07;100.00;100392.19;1712977;82;21151;-66
2022/09/08 01:02:37;;;;;;;28.25;13.48;;;;;;;6.09;100.00;100387.77;1713133;83;21008;-65
2022/09/08 01:05:11;;;;;;;24.45;11.43;;;;;;;6.12;100.00;100381.66;1713073;83;21396;-65
2022/09/08 01:14:18;;;;;;;21.65;12.23;;;;;;;6.23;100.00;100375.80;1713045;83;21171;-67
2022/09/08 01:16:48;;;;;;;28.57;14.03;;;;;;;6.26;100.00;100373.61;1713015;82;21083;-66
2022/09/08 01:19:30;;;;;;;24.75;13.45;;;;;;;6.30;100.00;100370.03;1713166;82;21090;-66
2022/09/08 01:22:26;;;;;;;22.45;12.53;;;;;;;6.31;100.00;100369.16;1713154;83;21013;-65
2022/09/08 01:25:05;;;;;;;20.25;12.10;;;;;;;6.32;100.00;100364.34;1708931;83;21107;-67
2022/09/08 01:27:32;;;;;;;25.20;12.80;;;;;;;6.33;100.00;100362.16;1712842;82;21150;-65
2022/09/08 01:30:02;;;;;;;23.57;12.55;;;;;;;6.35;100.00;100364.73;1712826;83;21079;-66
2022/09/08 01:32:32;;;;;;;26.35;12.78;;;;;;;6.36;100.00;100359.48;1712943;83;21307;-66
2022/09/08 01:35:00;;;;;;;22.98;12.40;;;;;;;6.35;100.00;100364.31;1713159;82;28218;-67
2022/09/08 01:37:26;;;;;;;24.87;11.53;;;;;;;6.35;100.00;100368.23;1718812;82;21668;-65
2022/09/08 01:39:52;;;;;;;25.08;12.33;;;;;;;6.37;100.00;100365.57;1720967;82;21736;-65
2022/09/08 01:42:19;;;;;;;25.20;12.68;;;;;;;6.37;100.00;100361.20;1720699;82;21584;-66
2022/09/08 01:44:46;;;;;;;20.85;10.38;;;;;;;6.38;100.00;100363.39;1720505;83;21043;-66
2022/09/08 01:47:12;;;;;;;20.97;11.12;;;;;;;6.38;100.00;100364.25;1720592;83;21027;-67
2022/09/08 01:49:39;;;;;;;20.72;10.93;;;;;;;6.42;100.00;100365.05;1720887;82;21295;-66
2022/09/08 01:52:06;;;;;;;20.05;11.00;;;;;;;6.43;100.00;100366.80;1720650;83;21244;-65
2022/09/08 01:54:34;;;;;;;18.70;10.38;;;;;;;6.46;100.00;100368.04;1707936;82;21095;-65
2022/09/08 01:57:01;;;;;;;18.02;10.63;;;;;;;6.46;100.00;100366.73;1691825;84;21073;-65
2022/09/08 01:59:27;;;;;;;19.17;10.98;;;;;;;6.46;100.00;100364.97;1691571;84;21050;-66
2022/09/08 02:01:54;;;;;;;23.40;12.35;;;;;;;6.47;100.00;100368.02;1670474;84;21579;-66
2022/09/08 02:04:20;;;;;;;20.32;11.30;;;;;;;6.46;100.00;100360.19;1663813;86;21552;-68
2022/09/08 02:06:47;;;;;;;22.50;11.50;;;;;;;6.46;100.00;100366.73;1663882;86;21077;-66
2022/09/08 02:09:14;;;;;;;22.02;11.35;;;;;;;6.46;100.00;100370.20;1663746;86;21019;-66
2022/09/08 02:11:41;;;;;;;22.22;10.65;;;;;;;6.44;100.00;100373.32;1663285;84;21090;-66
2022/09/08 02:14:07;;;;;;;19.92;10.58;;;;;;;6.41;100.00;100369.42;1663554;86;21122;-66
2022/09/08 02:16:34;;;;;;;23.62;11.65;;;;;;;6.38;100.00;100376.02;1663903;84;22104;-67
2022/09/08 02:19:01;;;;;;;19.15;11.12;;;;;;;6.35;100.00;100368.23;1663911;86;21055;-66
2022/09/08 02:21:27;;;;;;;27.32;12.03;;;;;;;6.32;100.00;100370.02;1663896;86;21141;-66
2022/09/08 02:23:54;;;;;;;23.12;11.70;;;;;;;6.27;100.00;100367.02;1664098;86;21073;-66
2022/09/08 02:26:28;;;;;;;22.17;11.38;;;;;;;6.22;100.00;100370.61;1663777;86;21152;-67
2022/09/08 02:28:54;;;;;;;23.98;11.85;;;;;;;6.17;100.00;100365.45;1664063;86;21638;-67
2022/09/08 02:31:22;;;;;;;25.70;12.28;;;;;;;6.10;100.00;100365.13;1663952;86;21584;-66
2022/09/08 02:33:49;;;;;;;22.90;12.55;;;;;;;6.05;100.00;100367.81;1664161;86;21035;-65
2022/09/08 02:36:15;;;;;;;20.32;11.28;;;;;;;5.99;100.00;100365.28;1666332;84;21106;-66
2022/09/08 02:38:50;;;;;;;25.43;12.65;;;;;;;5.94;100.00;100371.44;1684271;84;21093;-67
2022/09/08 02:41:17;;;;;;;18.37;10.38;;;;;;;5.86;100.00;100369.77;1684573;85;21479;-65
2022/09/08 02:43:44;;;;;;;23.77;11.93;;;;;;;5.79;100.00;100368.12;1684264;84;21078;-66
2022/09/08 02:46:11;;;;;;;22.58;12.43;;;;;;;5.76;100.00;100373.86;1684537;85;21093;-66
2022/09/08 02:48:37;;;;;;;22.45;12.20;;;;;;;5.72;100.00;100378.70;1684296;85;21085;-67
2022/09/08 02:51:08;;;;;;;23.30;11.75;;;;;;;5.66;100.00;100372.67;1684603;85;21127;-66
2022/09/08 02:53:37;;;;;;;19.98;11.35;;;;;;;5.59;100.00;100371.02;1685156;83;21147;-65
2022/09/08 02:56:04;;;;;;;18.98;10.90;;;;;;;5.54;100.00;100378.03;1713117;82;21016;-67
2022/09/08 02:58:31;;;;;;;24.05;11.90;;;;;;;5.50;100.00;100371.14;1713131;82;21599;-65
2022/09/08 03:00:58;;;;;;;21.40;12.18;;;;;;;5.49;100.00;100369.39;1702545;82;21053;-65
2022/09/08 03:03:24;;;;;;;23.80;12.45;;;;;;;5.47;100.00;100369.84;1684330;85;21041;-66
2022/09/08 03:05:51;;;;;;;22.42;12.18;;;;;;;5.43;100.00;100372.10;1684200;85;21197;-64
2022/09/08 03:08:19;;;;;;;24.23;11.18;;;;;;;5.40;100.00;100374.73;1684293;84;21053;-66
2022/09/08 03:10:48;;;;;;;25.10;10.98;;;;;;;5.37;100.00;100374.78;1684336;84;21108;-67
2022/09/08 03:13:14;;;;;;;21.97;10.75;;;;;;;5.34;100.00;100377.44;1684269;85;21113;-66
2022/09/08 03:15:41;;;;;;;22.60;10.05;;;;;;;5.31;100.00;100376.14;1684308;83;21140;-65
2022/09/08 03:18:09;;;;;;;19.35;10.32;;;;;;;5.28;100.00;100381.41;1684390;85;21266;-66
2022/09/08 03:20:37;;;;;;;25.65;10.85;;;;;;;5.25;100.00;100380.56;1684285;85;21073;-67
2022/09/08 03:23:03;;;;;;;17.40;9.35;;;;;;;5.23;100.00;100379.71;1684190;85;21056;-67
2022/09/08 03:25:36;;;;;;;23.27;11.10;;;;;;;5.22;100.00;100379.72;1684246;85;22086;-66
2022/09/08 03:28:05;;;;;;;23.15;11.48;;;;;;;5.21;100.00;100378.86;1684170;84;21064;-66
2022/09/08 03:30:32;;;;;;;18.30;10.93;;;;;;;5.19;100.00;100381.92;1684509;85;22438;-65
2022/09/08 03:32:59;;;;;;;24.00;11.08;;;;;;;5.14;100.00;100382.87;1684241;84;21056;-66
2022/09/08 03:35:26;;;;;;;23.30;10.45;;;;;;;5.09;100.00;100384.22;1684300;85;21074;-65
2022/09/08 03:37:54;;;;;;;21.68;10.13;;;;;;;5.08;100.00;100379.86;1692510;84;21100;-66
2022/09/08 03:40:20;;;;;;;23.65;9.73;;;;;;;5.07;100.00;100387.28;1697071;84;22069;-67
2022/09/08 03:42:47;;;;;;;18.52;10.25;;;;;;;5.05;100.00;100383.83;1663390;86;21056;-67
2022/09/08 03:45:16;;;;;;;23.92;10.88;;;;;;;5.04;100.00;100379.50;1646389;87;21129;-66
2022/09/08 03:47:43;;;;;;;21.25;10.32;;;;;;;5.08;100.00;100382.92;1646387;87;21097;-67
2022/09/08 03:50:11;;;;;;;26.27;10.75;;;;;;;5.06;100.00;100382.92;1646124;86;21141;-66
2022/09/08 03:52:39;;;;;;;24.20;10.43;;;;;;;5.07;100.00;100382.52;1645954;87;21093;-66
2022/09/08 03:55:06;;;;;;;26.60;9.93;;;;;;;5.09;100.00;100385.98;1656502;86;22045;-65
2022/09/08 03:57:33;;;;;;;19.77;9.05;;;;;;;5.11;100.00;100381.16;1662098;86;21068;-66
2022/09/08 04:00:00;;;;;;;19.57;10.43;;;;;;;5.21;100.00;100383.22;1662151;86;21029;-67
2022/09/08 04:02:28;;;;;;;20.75;10.03;;;;;;;5.52;100.00;100382.86;1662068;86;21115;-66
2022/09/08 04:04:56;;;;;;;20.32;9.98;;;;;;;6.08;100.00;100382.14;1648503;86;21135;-68
2022/09/08 04:07:25;;;;;;;18.75;10.85;;;;;;;6.65;100.00;100371.23;1662092;86;21261;-68
2022/09/08 04:09:54;;;;;;;17.17;10.28;;;;;;;7.19;100.00;100375.04;1661948;85;21427;-68
2022/09/08 04:12:20;;;;;;;26.82;10.58;;;;;;;7.78;100.00;100365.09;1662162;86;21037;-67
2022/09/08 04:14:48;;;;;;;35.30;10.70;;;;;;;8.43;100.00;100357.08;1661952;84;21645;-67
2022/09/08 04:17:17;;;;;;;25.43;10.48;;;;;;;9.01;99.66;100360.81;1662207;86;21060;-67
2022/09/08 04:19:45;;;;;;;25.77;10.58;;;;;;;9.53;95.23;100362.46;1662303;86;21195;-67
2022/09/08 04:22:12;;;;;;;27.73;10.43;;;;;;;10.05;91.09;100361.33;1662030;85;21097;-69
2022/09/08 04:24:39;;;;;;;27.32;9.38;;;;;;;10.66;87.37;100364.66;1662253;85;21076;-68
2022/09/08 04:27:05;;;;;;;18.82;9.28;;;;;;;11.25;83.60;100362.61;1662184;86;21553;-67
2022/09/08 04:29:34;;;;;;;20.68;9.73;;;;;;;11.80;79.97;100363.23;1662143;86;21073;-68
2022/09/08 04:32:01;;;;;;;21.20;9.28;;;;;;;12.33;75.69;100356.75;1662061;86;21284;-67
2022/09/08 04:34:28;;;;;;;20.30;8.93;;;;;;;12.69;73.30;100360.98;1661919;86;21552;-68
2022/09/08 04:36:54;;;;;;;16.97;8.08;;;;;;;13.15;70.46;100362.97;1683849;85;21542;-67
2022/09/08 04:39:21;;;;;;;21.02;10.03;;;;;;;13.49;68.28;100364.15;1670452;85;21113;-68
2022/09/08 04:41:47;;;;;;;14.78;8.13;;;;;;;13.85;66.34;100364.72;1670556;85;22173;-68
2022/09/08 04:44:16;;;;;;;14.33;7.97;;;;;;;14.34;65.53;100365.48;1670440;85;22255;-68
2022/09/08 04:46:42;;;;;;;15.53;7.20;;;;;;;14.95;63.47;100356.27;1685666;84;21056;-69
2022/09/08 04:49:09;;;;;;;20.43;8.88;;;;;;;15.53;61.02;100357.19;1720816;82;21114;-67
2022/09/08 04:51:35;;;;;;;15.05;8.00;;;;;;;16.04;58.53;100352.63;1720605;83;21007;-68
2022/09/08 04:54:04;;;;;;;17.48;7.35;;;;;;;16.44;56.29;100349.50;1720031;82;21540;-68
2022/09/08 04:56:30;;;;;;;21.00;7.92;;;;;;;16.85;55.12;100348.42;1718049;83;21218;-66
2022/09/08 04:58:59;;;;;;;20.88;8.68;;;;;;;17.27;53.64;100349.43;1717814;83;21092;-67
2022/09/08 05:01:30;;;;;;;21.55;8.28;;;;;;;17.62;52.47;100350.38;1718400;83;21553;-67
2022/09/08 05:04:01;;;;;;;16.37;7.47;;;;;;;18.00;51.28;100341.31;1717946;81;21096;-67
2022/09/08 05:06:31;;;;;;;16.02;7.25;;;;;;;18.46;50.18;100342.78;1718414;83;21065;-67
2022/09/08 05:09:00;;;;;;;18.60;8.53;;;;;;;18.66;49.14;100338.78;1717971;83;21786;-68
2022/09/08 05:11:30;;;;;;;12.37;7.33;;;;;;;18.90;48.09;100344.77;1717408;83;21446;-67
2022/09/08 05:13:58;;;;;;;16.02;7.87;;;;;;;19.25;47.43;100343.66;1717966;82;21307;-68
2022/09/08 05:16:27;;;;;;;17.77;7.80;;;;;;;19.73;46.32;100341.18;1718020;83;21084;-68
2022/09/08 05:18:59;;;;;;;16.77;7.60;;;;;;;20.19;45.20;100341.84;1717923;83;21180;-69
2022/09/08 05:21:27;;;;;;;17.48;7.55;;;;;;;20.62;44.26;100340.00;1718147;83;21123;-68
2022/09/08 05:23:55;;;;;;;17.60;7.47;;;;;;;21.01;43.32;100340.61;1717870;83;21668;-69
2022/09/08 05:26:23;;;;;;;15.10;8.03;;;;;;;21.36;42.40;100342.34;1705938;83;21056;-68
2022/09/08 05:28:49;;;;;;;12.40;6.75;;;;;;;21.74;41.58;100339.80;1689091;84;21091;-68
2022/09/08 05:31:19;;;;;;;18.32;6.53;;;;;;;22.17;40.50;100340.34;1689577;84;21048;-68
2022/09/08 05:33:46;;;;;;;10.55;6.03;;;;;;;22.67;39.58;100336.64;1689046;84;21132;-69
2022/09/08 05:36:19;;;;;;;14.73;6.25;;;;;;;23.14;38.31;100339.80;1689315;84;21104;-68
2022/09/08 05:38:47;;;;;;;13.62;4.97;;;;;;;23.51;37.72;100341.13;1686752;84;21687;-69
2022/09/08 05:41:14;;;;;;;10.15;5.30;;;;;;;23.91;36.46;100338.97;1657605;86;21025;-68
2022/09/08 05:43:41;;;;;;;15.18;5.75;;;;;;;24.32;35.84;100332.52;1691781;84;21112;-69
2022/09/08 05:46:07;;;;;;;16.93;4.75;;;;;;;24.72;34.53;100335.59;1691886;84;21861;-68
2022/09/08 05:48:34;;;;;;;6.85;3.80;;;;;;;25.15;33.56;100336.94;1691903;84;21019;-68
2022/09/08 05:51:02;;;;;;;7.47;4.42;;;;;;;25.53;31.21;100336.47;1691944;84;21084;-69
2022/09/08 05:53:29;;;;;;;14.55;4.17;;;;;;;25.90;29.91;100336.95;1691996;84;21045;-68
2022/09/08 05:56:01;;;;;;;6.42;3.98;;;;;;;26.30;29.16;100336.56;1720535;83;21498;-69
2022/09/08 05:58:30;;;;;;;10.53;4.00;;;;;;;26.65;28.19;100343.49;1720655;82;21158;-69
2022/09/08 06:01:00;;;;;;;6.58;3.40;;;;;;;26.88;27.54;100336.58;1720720;82;21054;-70
2022/09/08 06:03:27;;;;;;;5.55;4.03;;;;;;;26.94;26.28;100338.66;1720358;82;21703;-69
2022/09/08 06:05:54;;;;;;;8.40;3.95;;;;;;;27.21;25.83;100338.17;1720460;83;21083;-67
2022/09/08 06:08:23;;;;;;;10.60;4.08;;;;;;;27.50;25.50;100341.06;1720758;83;21560;-70
2022/09/08 06:10:52;;;;;;;7.12;3.65;;;;;;;27.80;25.08;100335.09;1720893;82;21559;-70
2022/09/08 06:13:21;;;;;;;10.18;4.25;;;;;;;27.94;24.60;100336.36;1721010;83;21586;-68
2022/09/08 06:15:48;;;;;;;9.73;4.50;;;;;;;28.07;24.05;100335.89;1720839;83;21047;-68
2022/09/08 06:18:17;;;;;;;8.78;4.75;;;;;;;28.03;24.04;100342.64;1721158;83;21051;-67
2022/09/08 06:20:44;;;;;;;9.78;4.92;;;;;;;28.03;23.98;100342.64;1720924;83;21078;-69
2022/09/08 06:23:12;;;;;;;13.35;4.83;;;;;;;28.17;24.07;100344.70;1720821;82;21777;-72
2022/09/08 06:25:43;;;;;;;8.88;5.30;;;;;;;28.44;23.98;100349.50;1720768;82;21062;-68
2022/09/08 06:28:24;;;;;;;9.83;5.50;;;;;;;28.30;23.06;100349.66;1685816;84;21541;-68
2022/09/08 06:30:51;;;;;;;11.95;5.08;;;;;;;27.95;23.52;100353.44;1685802;84;21112;-68
2022/09/08 06:33:28;;;;;;;8.65;5.35;;;;;;;27.80;23.86;100355.90;1685927;85;21100;-68
2022/09/08 06:36:01;;;;;;;12.07;5.72;;;;;;;27.96;23.98;100353.28;1685532;85;21170;-68
2022/09/08 06:38:43;;;;;;;8.15;4.92;;;;;;;28.19;23.29;100356.22;1685831;85;21014;-67
2022/09/08 06:41:29;;;;;;;8.45;5.47;;;;;;;28.33;23.21;100357.95;1685779;85;21162;-68
2022/09/08 06:44:05;;;;;;;8.95;5.60;;;;;;;28.29;22.86;100361.48;1685864;85;21048;-69
2022/09/08 06:46:36;;;;;;;9.50;5.28;;;;;;;28.26;23.18;100360.98;1685965;85;21100;-68
2022/09/08 06:49:02;;;;;;;9.90;5.80;;;;;;;28.34;22.59;100360.98;1685850;85;21467;-68
2022/09/08 06:52:05;;;;;;;12.85;5.45;;;;;;;28.62;22.91;100366.48;1720876;82;21049;-68
2022/09/08 06:55:02;;;;;;;15.45;5.83;;;;;;;28.84;22.50;100367.66;1682734;85;21021;-69
2022/09/08 06:58:09;;;;;;;10.28;5.78;;;;;;;29.14;22.51;100360.38;1685757;85;21108;-69
2022/09/08 07:00:50;;;;;;;14.10;5.78;;;;;;;29.45;21.49;100361.86;1685019;85;21093;-70
2022/09/08 07:03:52;;;;;;;10.13;5.78;;;;;;;29.44;21.96;100367.77;1720592;82;21246;-69
2022/09/08 07:06:19;;;;;;;14.83;5.55;;;;;;;29.58;21.96;100368.07;1720884;83;21181;-68
2022/09/08 07:09:23;;;;;;;8.48;5.80;;;;;;;29.73;21.76;100365.52;1679423;83;22409;-69
2022/09/08 07:12:05;;;;;;;9.15;5.22;;;;;;;29.53;21.91;100367.76;1720332;83;21043;-69
2022/09/08 07:14:56;;;;;;;23.18;6.25;;;;;;;29.35;22.14;100372.87;1720828;83;21211;-68
2022/09/08 07:17:41;;;;;;;;;;;;;;;29.60;22.22;100374.17;1722306;82;21159;-70
2022/09/08 07:20:11;;;;;;;7.75;4.00;;;;;;;29.92;22.08;100375.10;1644889;83;20182;-68
2022/09/08 07:23:02;;;;;;;8.43;4.40;;;;;;;30.13;19.91;100368.53;1720747;82;21054;-69
2022/09/08 07:25:59;;;;;;;6.95;4.05;;;;;;;29.90;20.56;100372.55;1720612;83;21102;-67
2022/09/08 07:28:28;;;;;;;6.67;3.95;;;;;;;29.90;20.78;100378.83;1720666;83;21090;-67
2022/09/08 07:30:59;;;;;;;6.28;4.05;;;;;;;30.08;20.46;100375.02;1720837;83;21117;-69
2022/09/08 07:33:41;;;;;;;12.65;4.42;;;;;;;30.19;20.34;100380.05;1720545;82;21004;-69
2022/09/08 07:36:15;;;;;;;9.48;4.70;;;;;;;30.37;20.40;100376.22;1704407;83;21622;-67
2022/09/08 07:38:53;;;;;;;5.42;3.80;;;;;;;30.72;20.13;100377.00;1720924;82;21032;-69
2022/09/08 07:41:44;;;;;;;5.50;3.95;;;;;;;30.93;20.02;100374.98;1720751;82;21011;-68
2022/09/08 07:44:19;;;;;;;9.50;4.12;;;;;;;31.12;19.11;100370.89;1720921;83;21919;-69
2022/09/08 07:46:51;;;;;;;6.35;3.50;;;;;;;31.13;19.65;100375.31;1720733;83;21542;-69
2022/09/08 07:49:41;;;;;;;8.98;4.03;;;;;;;31.18;19.06;100373.92;1720760;82;21114;-69
2022/09/08 07:52:29;;;;;;;7.95;4.25;;;;;;;31.07;19.35;100367.88;1721031;83;21035;-69
2022/09/08 07:55:02;;;;;;;5.37;3.52;;;;;;;31.08;19.08;100369.59;1720614;83;21062;-67
2022/09/08 07:57:40;;;;;;;6.12;2.92;;;;;;;31.17;19.16;100374.94;1720605;83;21139;-67
2022/09/08 08:00:14;;;;;;;10.10;3.77;;;;;;;31.47;18.34;100376.70;1720438;83;21061;-69
2022/09/08 08:03:08;;;;;;;5.20;3.08;;;;;;;31.70;18.02;100375.73;1720662;82;21030;-69
2022/09/08 08:05:45;;;;;;;6.47;3.02;;;;;;;31.71;17.98;100372.00;1721174;82;21030;-68
2022/09/08 08:08:44;;;;;;;5.08;2.80;;;;;;;31.56;18.06;100379.66;1720704;82;21053;-69
2022/09/08 08:11:18;;;;;;;5.05;3.15;;;;;;;31.70;17.56;100374.38;1720395;82;21213;-69
2022/09/08 08:14:25;;;;;;;8.83;3.52;;;;;;;31.61;17.96;100371.42;1718958;83;21605;-69
2022/09/08 08:17:09;;;;;;;3.47;2.67;;;;;;;30.87;18.18;100370.27;1720722;83;21029;-69
2022/09/08 08:20:09;;;;;;;7.75;2.77;;;;;;;30.38;18.44;100373.34;1720740;83;21060;-69
2022/09/08 08:22:50;;;;;;;4.30;2.40;;;;;;;30.27;18.57;100369.16;1716756;83;21593;-70
2022/09/08 08:25:29;;;;;;;8.18;2.33;;;;;;;30.50;18.65;100373.77;1720120;83;21224;-69
2022/09/08 08:28:19;;;;;;;7.00;2.83;;;;;;;30.71;17.30;100365.81;1720735;82;21225;-69
2022/09/08 08:31:06;;;;;;;7.03;3.20;;;;;;;30.38;16.72;100365.19;1720575;83;26217;-69
2022/09/08 08:33:44;;;;;;;20.65;4.80;;;;;;;29.83;17.72;100366.98;1720813;81;21049;-68
2022/09/08 08:36:12;;;;;;;9.50;4.65;;;;;;;30.04;18.46;100361.45;1720591;82;21611;-70
2022/09/08 08:38:46;;;;;;;69.35;12.13;;;;;;;30.45;17.15;100362.60;1720822;83;21102;-68
2022/09/08 08:41:48;;;;;;;8.23;5.12;;;;;;;30.17;17.36;100364.44;1723317;82;21533;-69
2022/09/08 08:44:38;;;;;;;12.65;6.30;;;;;;;30.05;17.12;100364.52;1725815;83;21262;-67
2022/09/08 08:47:47;;;;;;;19.85;8.68;;;;;;;30.13;17.98;100361.75;1726017;83;21058;-68
2022/09/08 08:50:34;;;;;;;19.52;9.95;;;;;;;30.58;17.95;100357.41;1726257;83;21085;-69
2022/09/08 08:53:28;;;;;;;18.10;10.93;;;;;;;30.74;16.86;100351.00;1721838;82;21866;-70
2022/09/08 08:56:27;;;;;;;25.00;12.43;;;;;;;30.37;17.06;100349.06;1696170;82;21067;-69
2022/09/08 08:59:37;;;;;;;30.10;16.57;;;;;;;30.21;17.53;100353.56;1695266;84;21039;-68
2022/09/08 09:02:40;;;;;;;37.28;20.17;;;;;;;30.26;18.10;100353.02;1695577;84;22105;-69
2022/09/08 09:05:21;;;;;;;43.13;21.73;;;;;;;30.44;18.15;100358.20;1695334;84;21776;-69
2022/09/08 09:08:08;;;;;;;43.52;21.68;;;;;;;30.43;18.38;100357.86;1695003;84;21618;-70
2022/09/08 09:11:22;;;;;;;135.90;30.23;;;;;;;30.30;17.87;100357.95;1694839;84;21111;-67
2022/09/08 09:14:05;;;;;;;50.67;28.17;;;;;;;30.02;17.87;100358.07;1694675;84;21090;-69
2022/09/08 09:16:59;;;;;;;48.83;28.85;;;;;;;29.97;18.37;100358.60;1695115;84;21554;-69
2022/09/08 09:20:07;;;;;;;52.70;29.18;;;;;;;29.97;18.37;100358.60;1694681;84;21128;-69
2022/09/08 09:22:57;;;;;;;44.80;25.35;;;;;;;30.06;18.22;100357.53;1695155;84;21752;-69
2022/09/08 09:25:36;;;;;;;69.05;30.45;;;;;;;29.54;18.60;100346.38;1693387;84;21619;-69
2022/09/08 09:28:43;;;;;;;47.15;26.75;;;;;;;29.29;18.55;100350.53;1695285;84;21102;-68
2022/09/08 09:31:39;;;;;;;71.33;28.77;;;;;;;29.23;18.85;100349.86;1694677;84;21098;-69
2022/09/08 09:34:37;;;;;;;57.85;27.45;;;;;;;29.34;18.38;100347.30;1694470;84;21047;-68
2022/09/08 09:37:26;;;;;;;45.83;25.27;;;;;;;29.18;18.57;100345.47;1694933;84;21143;-70
2022/09/08 09:40:01;;;;;;;51.45;27.30;;;;;;;29.40;18.72;100347.45;1695062;84;21051;-69
2022/09/08 09:42:33;;;;;;;45.48;27.52;;;;;;;29.76;18.64;100351.59;1695233;84;21072;-68
2022/09/08 09:45:28;;;;;;;37.08;21.93;;;;;;;29.93;17.70;100354.55;1695374;84;21548;-68
2022/09/08 09:48:20;;;;;;;39.88;20.70;;;;;;;29.77;17.80;100351.91;1695512;84;21063;-68
2022/09/08 09:54:21;;;;;;;28.55;16.25;;;;;;;28.76;18.06;100355.48;1813252;79;22797;-68
2022/09/08 09:57:28;;;;;;;29.05;16.12;;;;;;;28.53;17.93;100360.72;1771954;81;20995;-69
2022/09/08 10:00:20;;;;;;;29.18;15.93;;;;;;;28.41;18.29;100357.46;1784400;80;21777;-69
2022/09/08 10:03:30;;;;;;;29.87;16.30;;;;;;;28.72;18.47;100355.98;1787443;80;20993;-69
2022/09/08 10:06:27;;;;;;;40.70;18.50;;;;;;;28.97;18.34;100356.83;1787495;80;21568;-70
2022/09/08 10:09:12;;;;;;;25.65;16.40;;;;;;;29.24;18.84;100356.48;1786755;80;21573;-67
2022/09/08 10:12:08;;;;;;;46.25;20.02;;;;;;;29.38;18.71;100357.62;1787379;80;21016;-70
2022/09/08 10:14:54;;;;;;;34.73;20.52;;;;;;;29.79;18.50;100364.80;1787449;80;21134;-69
2022/09/08 10:17:29;;;;;;;36.10;20.15;;;;;;;30.02;17.66;100366.22;1787261;80;20962;-69
2022/09/08 10:20:08;;;;;;;32.40;19.20;;;;;;;29.96;17.75;100366.42;1787609;80;21004;-70
2022/09/08 10:23:03;;;;;;;27.55;14.98;;;;;;;29.99;18.34;100367.94;1787785;80;21036;-68
2022/09/08 10:25:47;;;;;;;29.92;15.72;;;;;;;29.90;18.33;100373.39;1787479;80;21020;-69
2022/09/08 10:28:45;;;;;;;29.63;15.28;;;;;;;29.98;18.11;100368.94;1785260;80;21176;-70
2022/09/08 10:32:00;;;;;;;30.57;15.53;;;;;;;29.99;17.30;100365.22;1786741;80;21076;-69
2022/09/08 10:34:59;;;;;;;29.92;15.65;;;;;;;29.20;18.27;100366.48;1787702;80;21620;-70
2022/09/08 10:37:35;;;;;;;23.05;13.60;;;;;;;29.20;18.27;100366.48;1787298;80;21574;-70
2022/09/08 10:40:39;;;;;;;21.73;13.05;;;;;;;29.44;18.79;100360.98;1787747;80;21025;-69
2022/09/08 10:44:03;;;;;;;24.00;11.97;;;;;;;29.62;18.20;100368.06;1787337;80;21770;-69
2022/09/08 10:47:11;;;;;;;20.05;11.38;;;;;;;29.88;17.90;100369.17;1787387;80;21025;-70
2022/09/08 10:50:16;;;;;;;21.68;10.75;;;;;;;29.85;17.39;100367.66;1787673;80;21045;-69
2022/09/08 10:53:23;;;;;;;24.30;9.68;;;;;;;29.61;17.71;100370.42;1781094;80;21607;-68
2022/09/08 10:56:08;;;;;;;18.52;9.58;;;;;;;29.53;18.32;100373.19;1773979;80;21581;-67
2022/09/08 10:59:10;;;;;;;30.82;9.65;;;;;;;29.69;17.90;100366.37;1773788;80;21223;-69
2022/09/08 11:02:13;;;;;;;16.17;9.03;;;;;;;29.74;17.83;100367.20;1773725;80;21557;-69
2022/09/08 11:05:06;;;;;;;21.60;8.78;;;;;;;29.60;17.88;100363.31;1772819;80;21569;-69
2022/09/08 11:08:11;;;;;;;15.55;8.90;;;;;;;29.65;18.10;100362.27;1773461;80;21037;-68
2022/09/08 11:11:12;;;;;;;18.15;9.03;;;;;;;29.60;17.54;100360.61;1773388;80;21647;-68
2022/09/08 11:14:16;;;;;;;20.37;9.10;;;;;;;29.26;18.02;100345.44;1773365;80;21190;-69
2022/09/08 11:17:17;;;;;;;19.95;8.63;;;;;;;29.21;18.35;100355.96;1772957;80;21058;-67
2022/09/08 11:19:47;;;;;;;15.40;8.28;;;;;;;29.21;18.80;100355.96;1773403;80;21574;-69
2022/09/08 11:22:37;;;;;;;22.48;9.55;;;;;;;29.25;18.71;100355.45;1773543;80;21080;-70
2022/09/08 11:25:30;;;;;;;19.53;8.90;;;;;;;29.17;18.89;100358.67;1773649;80;21089;-68
2022/09/08 11:28:04;;;;;;;20.72;8.60;;;;;;;29.13;17.82;100350.57;1772518;80;21195;-68
2022/09/08 11:31:06;;;;;;;14.65;8.83;;;;;;;28.92;18.52;100347.84;1773339;80;21050;-69
2022/09/08 11:34:03;;;;;;;21.93;8.30;;;;;;;28.73;19.43;100343.60;1690720;83;21065;-69
2022/09/08 11:36:41;;;;;;;17.73;8.50;;;;;;;28.80;19.01;100342.41;1685370;83;21117;-68
2022/09/08 11:39:45;;;;;;;18.40;8.53;;;;;;;28.74;19.23;100349.37;1742462;80;21060;-69
2022/09/08 11:42:59;;;;;;;22.13;8.98;;;;;;;28.72;18.41;100349.21;1749192;80;21129;-68
2022/09/08 11:45:43;;;;;;;71.02;13.78;;;;;;;28.48;18.99;100360.34;1773367;80;21962;-69
2022/09/08 11:48:41;;;;;;;17.27;8.23;;;;;;;28.34;19.12;100358.27;1746530;80;21069;-69
2022/09/08 11:51:26;;;;;;;15.65;7.85;;;;;;;28.33;19.11;100356.59;1773401;80;21077;-67
2022/09/08 11:54:02;;;;;;;15.83;8.03;;;;;;;28.19;19.03;100345.39;1773296;80;21128;-69
2022/09/08 11:57:09;;;;;;;21.12;7.72;;;;;;;28.21;20.00;100354.20;1713547;82;22039;-68
2022/09/08 11:59:41;;;;;;;17.45;7.53;;;;;;;28.13;19.39;100358.23;1748297;82;21092;-67
2022/09/08 12:02:41;;;;;;;15.83;7.65;;;;;;;28.02;19.00;100347.70;1748195;81;21085;-70
2022/09/08 12:05:43;;;;;;;15.23;7.33;;;;;;;27.82;18.98;100352.02;1748103;82;21053;-67
2022/09/08 12:08:55;;;;;;;23.83;6.80;;;;;;;27.44;19.55;100344.40;1747658;82;21058;-69
2022/09/08 12:12:12;;;;;;;13.75;6.78;;;;;;;27.24;19.86;100344.64;1748250;82;21219;-68